Pagina principale
METAR-TAF:

METAR-TAF

Aeroporti :

Aeroporto di Magadino

Locarno, Svizzera

latitudine: 46-09-55N, longitudine: 8-52-40E, altezza: 198 m

Osservazione

Il bollettino è stato emesso 34 minuti fa, alle 22:20 UTC
Vento 1 kt da direzioni variabili
Temperature 18°C
Umidità 56%
Pressione 1019 hPa
Visibilità 10 km o più
Poco nuvoloso ad un'altezza di 5700 ft
Nubi sparse ad un'altezza di 6700 ft

METAR: LSZL 292220Z AUTO VRB01KT 9999NDV FEW057 SCT067 18/09 Q1019 RMK

Ora: 00:54 (22:54 UTC)

Previsione

Il bollettino è stato emesso 5 ore e 29 minuti fa, alle 17:25 UTC
Previsione valida dal 29 alle 18 UTC al 30 alle 03 UTC
Vento 3 kt da direzioni variabili
Visibilità 10 km o più
Poco nuvoloso ad un'altezza di 6000 ft

TAF: LSZL 291725Z 2918/3003 VRB03KT 9999 FEW060

Osservazioni e previsioni meteorologiche di più di 4000 aeroporti (messaggi METAR e TAF).

Le stazioni disponibili sono rappresentate dai dischi gialli e rossi sulla carta.

Puntare il mouse per vedere il nome della stazione.

Clicca sopra per visualizzare le osservazioni e previsioni meteorologiche.

Per cambiare la mappa : fare clic sui pulsanti verdi con una croce nera per ingrandire, il pulsante verde con un trattino per diminuire, o sulla freccia verde per le mappe adiacenti.


METAR-TAF: